Time;durP1;ratioP1;P1;durP2;ratioP2;P2;SDS_P1;SDS_P2;PMS_P1;PMS_P2;Temp;Humidity;BMP_temperature;BMP_pressure;BME280_temperature;BME280_humidity;BME280_pressure;Samples;Min_cycle;Max_cycle;Signal;HPM_P1;HPM_P2
2023/12/05 00:01:18;;;;;;;33.25;18.40;;;;;;;;;;4982416;28;20229;-82
2023/12/05 00:03:44;;;;;;;37.50;19.45;;;;;;;;;;4982426;28;20205;-82
2023/12/05 00:06:11;;;;;;;30.63;20.30;;;;;;;;;;4982451;28;20172;-82
2023/12/05 00:08:37;;;;;;;36.40;22.58;;;;;;;;;;4980562;28;20468;-82
2023/12/05 00:11:04;;;;;;;34.38;22.15;;;;;;;;;;4981986;28;20203;-82
2023/12/05 00:13:30;;;;;;;30.15;19.10;;;;;;;;;;4980313;28;20205;-82
2023/12/05 00:15:56;;;;;;;33.03;20.90;;;;;;;;;;4980672;28;20187;-82
2023/12/05 00:18:22;;;;;;;35.33;19.13;;;;;;;;;;4964094;28;20183;-83
2023/12/05 00:20:48;;;;;;;31.63;19.43;;;;;;;;;;4980536;28;20422;-82
2023/12/05 00:23:14;;;;;;;28.63;19.13;;;;;;;;;;4979902;28;20420;-83
2023/12/05 00:25:40;;;;;;;28.42;19.80;;;;;;;;;;4980038;28;20890;-82
2023/12/05 00:28:06;;;;;;;28.03;17.93;;;;;;;;;;4980059;28;20240;-82
2023/12/05 00:30:32;;;;;;;30.00;18.90;;;;;;;;;;4979493;28;20430;-83
2023/12/05 00:32:58;;;;;;;25.58;18.40;;;;;;;;;;4981308;28;20961;-83
2023/12/05 00:35:24;;;;;;;29.88;18.45;;;;;;;;;;4962947;28;20180;-84
2023/12/05 00:37:50;;;;;;;27.05;19.35;;;;;;;;;;4979940;28;20204;-83
2023/12/05 00:40:16;;;;;;;30.80;18.35;;;;;;;;;;4981078;28;20179;-84
2023/12/05 00:42:42;;;;;;;26.45;18.95;;;;;;;;;;4981113;28;20202;-82
2023/12/05 00:45:09;;;;;;;31.60;18.58;;;;;;;;;;4981239;28;20186;-82
2023/12/05 00:47:34;;;;;;;30.67;18.92;;;;;;;;;;4979361;28;20239;-82
2023/12/05 00:50:00;;;;;;;27.07;18.50;;;;;;;;;;4979919;28;20719;-83
2023/12/05 00:52:26;;;;;;;26.10;17.53;;;;;;;;;;4979586;28;20440;-83
2023/12/05 00:54:52;;;;;;;25.27;17.35;;;;;;;;;;4980918;28;20409;-82
2023/12/05 00:57:18;;;;;;;27.10;18.70;;;;;;;;;;4979834;28;20570;-83
2023/12/05 00:59:44;;;;;;;27.27;19.00;;;;;;;;;;4979190;28;20463;-83
2023/12/05 01:02:10;;;;;;;30.85;18.23;;;;;;;;;;4979529;28;20437;-83
2023/12/05 01:04:36;;;;;;;28.35;19.92;;;;;;;;;;4980820;28;20668;-83
2023/12/05 01:07:04;;;;;;;27.42;18.63;;;;;;;;;;4980818;28;20489;-83
2023/12/05 01:09:30;;;;;;;28.92;16.30;;;;;;;;;;4980266;28;20195;-83
2023/12/05 01:11:56;;;;;;;28.70;17.40;;;;;;;;;;4963680;28;20193;-83
2023/12/05 01:14:22;;;;;;;26.87;17.37;;;;;;;;;;4978983;28;20407;-83
2023/12/05 01:16:48;;;;;;;30.55;18.48;;;;;;;;;;4980442;28;20399;-82
2023/12/05 01:19:14;;;;;;;28.25;16.40;;;;;;;;;;4980712;28;20210;-84
2023/12/05 01:21:40;;;;;;;29.23;18.80;;;;;;;;;;4979943;28;20171;-84
2023/12/05 01:24:06;;;;;;;24.13;16.83;;;;;;;;;;4980415;28;20193;-83
2023/12/05 01:26:33;;;;;;;24.90;18.23;;;;;;;;;;4980095;28;20494;-84
2023/12/05 01:28:58;;;;;;;28.15;17.30;;;;;;;;;;4979624;28;20665;-84
2023/12/05 01:31:24;;;;;;;27.03;16.87;;;;;;;;;;4963098;28;20179;-83
2023/12/05 01:33:51;;;;;;;26.67;16.15;;;;;;;;;;4980261;28;20411;-84
2023/12/05 01:36:17;;;;;;;23.25;16.35;;;;;;;;;;4979903;28;20627;-84
2023/12/05 01:38:43;;;;;;;26.90;16.13;;;;;;;;;;4979360;28;20262;-83
2023/12/05 01:41:09;;;;;;;25.35;16.15;;;;;;;;;;4978585;28;20415;-83
2023/12/05 01:43:35;;;;;;;32.42;17.27;;;;;;;;;;4978016;28;20182;-84
2023/12/05 01:46:01;;;;;;;27.70;16.88;;;;;;;;;;4978214;28;20175;-84
2023/12/05 01:48:27;;;;;;;26.75;17.85;;;;;;;;;;4978206;28;20547;-83
2023/12/05 01:50:54;;;;;;;28.52;17.98;;;;;;;;;;4979570;28;20236;-83
2023/12/05 01:53:21;;;;;;;25.98;18.73;;;;;;;;;;4979160;28;20279;-84
2023/12/05 01:55:48;;;;;;;27.60;18.58;;;;;;;;;;4979731;28;20175;-83
2023/12/05 01:58:14;;;;;;;29.90;18.27;;;;;;;;;;4979750;28;20181;-83
2023/12/05 02:00:40;;;;;;;32.97;21.38;;;;;;;;;;4978933;28;20539;-83
2023/12/05 02:03:06;;;;;;;32.03;20.80;;;;;;;;;;4979434;28;20273;-83
2023/12/05 02:05:32;;;;;;;36.67;23.15;;;;;;;;;;4977596;28;20194;-83
2023/12/05 02:07:58;;;;;;;32.40;20.52;;;;;;;;;;4979860;28;20171;-82
2023/12/05 02:10:24;;;;;;;34.70;20.35;;;;;;;;;;4978964;28;20211;-83
2023/12/05 02:12:50;;;;;;;32.60;21.73;;;;;;;;;;4979263;28;20621;-83
2023/12/05 02:15:16;;;;;;;33.20;20.80;;;;;;;;;;4979287;28;20420;-82
2023/12/05 02:17:42;;;;;;;31.05;19.40;;;;;;;;;;4979180;28;20398;-82
2023/12/05 02:20:12;;;;;;;27.90;19.30;;;;;;;;;;4978592;28;20271;-82
2023/12/05 02:22:50;;;;;;;32.70;19.98;;;;;;;;;;4978896;28;20179;-82
2023/12/05 02:25:19;;;;;;;24.92;17.50;;;;;;;;;;4977684;28;20183;-82
2023/12/05 02:27:45;;;;;;;26.60;18.00;;;;;;;;;;4979138;28;20250;-82
2023/12/05 02:30:14;;;;;;;27.42;18.05;;;;;;;;;;4978708;28;20225;-82
2023/12/05 02:32:40;;;;;;;32.40;18.52;;;;;;;;;;4978905;28;20168;-82
2023/12/05 02:35:06;;;;;;;26.20;17.10;;;;;;;;;;4979108;28;20525;-82
2023/12/05 02:37:35;;;;;;;27.40;16.38;;;;;;;;;;4979369;28;20213;-82
2023/12/05 02:40:30;;;;;;;25.20;16.73;;;;;;;;;;4979177;28;20555;-82
2023/12/05 02:42:57;;;;;;;26.80;17.08;;;;;;;;;;4943562;28;20188;-81
2023/12/05 02:45:25;;;;;;;23.83;16.00;;;;;;;;;;4978822;28;20275;-83
2023/12/05 02:47:52;;;;;;;27.25;17.48;;;;;;;;;;4978198;28;20612;-81
2023/12/05 02:50:18;;;;;;;22.40;16.00;;;;;;;;;;4979240;28;20213;-81
2023/12/05 02:52:44;;;;;;;25.25;17.10;;;;;;;;;;4979628;28;20176;-81
2023/12/05 02:55:11;;;;;;;29.77;17.77;;;;;;;;;;4983194;28;20186;-81
2023/12/05 02:57:37;;;;;;;23.77;17.60;;;;;;;;;;4981638;28;20227;-81
2023/12/05 03:00:04;;;;;;;26.88;18.50;;;;;;;;;;4981262;28;20187;-81
2023/12/05 03:02:30;;;;;;;29.08;18.42;;;;;;;;;;4981343;28;20187;-82
2023/12/05 03:04:56;;;;;;;23.02;18.52;;;;;;;;;;4982725;28;20239;-81
2023/12/05 03:07:22;;;;;;;29.27;18.48;;;;;;;;;;4981292;28;20244;-81
2023/12/05 03:09:48;;;;;;;31.13;19.87;;;;;;;;;;4982125;28;20618;-82
2023/12/05 03:12:14;;;;;;;26.60;18.83;;;;;;;;;;4982261;28;20406;-81
2023/12/05 03:14:40;;;;;;;26.07;16.50;;;;;;;;;;4982567;28;20410;-82
2023/12/05 03:17:06;;;;;;;29.10;18.77;;;;;;;;;;4965097;28;20506;-82
2023/12/05 03:19:32;;;;;;;30.55;18.17;;;;;;;;;;4981902;28;20466;-82
2023/12/05 03:21:58;;;;;;;35.10;18.97;;;;;;;;;;4981371;28;20168;-82
2023/12/05 03:24:24;;;;;;;25.90;16.75;;;;;;;;;;4981787;28;20407;-82
2023/12/05 03:26:50;;;;;;;27.53;18.83;;;;;;;;;;4982273;28;20300;-82
2023/12/05 03:29:16;;;;;;;28.05;17.95;;;;;;;;;;4981879;28;20935;-82
2023/12/05 03:31:42;;;;;;;26.50;17.57;;;;;;;;;;4981060;28;20180;-82
2023/12/05 03:34:08;;;;;;;23.90;15.43;;;;;;;;;;4982159;28;20415;-82
2023/12/05 03:36:34;;;;;;;28.33;15.47;;;;;;;;;;4964589;28;20183;-82
2023/12/05 03:39:00;;;;;;;24.13;15.60;;;;;;;;;;4981596;28;21094;-82
2023/12/05 03:41:26;;;;;;;23.17;14.50;;;;;;;;;;4964016;28;20278;-85
2023/12/05 03:43:52;;;;;;;24.03;14.77;;;;;;;;;;4982122;28;20411;-82
2023/12/05 03:46:18;;;;;;;26.92;16.42;;;;;;;;;;4981718;28;20407;-82
2023/12/05 03:48:44;;;;;;;24.70;15.40;;;;;;;;;;4980335;28;20210;-82
2023/12/05 03:51:10;;;;;;;23.13;14.70;;;;;;;;;;4981712;28;20423;-82
2023/12/05 03:53:36;;;;;;;22.07;14.07;;;;;;;;;;4981360;28;20879;-82
2023/12/05 03:56:02;;;;;;;19.50;14.00;;;;;;;;;;4981941;28;20411;-83
2023/12/05 03:58:28;;;;;;;19.40;13.50;;;;;;;;;;4979497;28;20422;-84
2023/12/05 04:00:54;;;;;;;19.17;13.18;;;;;;;;;;4981455;28;20172;-82
2023/12/05 04:03:20;;;;;;;17.33;11.93;;;;;;;;;;4979707;28;20643;-83
2023/12/05 04:05:46;;;;;;;17.23;12.00;;;;;;;;;;4979728;28;20882;-83
2023/12/05 04:08:12;;;;;;;18.30;11.27;;;;;;;;;;4980420;28;20411;-83
2023/12/05 04:10:38;;;;;;;15.63;10.50;;;;;;;;;;4981265;28;20459;-84
2023/12/05 04:13:04;;;;;;;11.90;9.50;;;;;;;;;;4981289;28;20425;-83
2023/12/05 04:15:30;;;;;;;13.10;9.03;;;;;;;;;;4979281;28;20419;-84
2023/12/05 04:17:56;;;;;;;12.52;9.38;;;;;;;;;;4981138;28;20462;-84
2023/12/05 04:20:22;;;;;;;12.77;8.60;;;;;;;;;;4978737;28;20180;-84
2023/12/05 04:22:48;;;;;;;13.50;9.75;;;;;;;;;;4979659;28;20494;-84
2023/12/05 04:25:16;;;;;;;12.10;9.43;;;;;;;;;;4978759;28;20180;-84
2023/12/05 04:27:41;;;;;;;12.40;9.32;;;;;;;;;;4980470;28;20280;-84
2023/12/05 04:30:08;;;;;;;12.40;9.50;;;;;;;;;;4980655;28;20310;-84
2023/12/05 04:32:34;;;;;;;13.82;9.55;;;;;;;;;;4980297;28;20404;-85
2023/12/05 04:35:00;;;;;;;11.10;8.70;;;;;;;;;;4980343;28;20187;-84
2023/12/05 04:37:26;;;;;;;14.23;9.50;;;;;;;;;;4979056;28;20530;-84
2023/12/05 04:39:52;;;;;;;11.00;8.82;;;;;;;;;;4978579;28;20494;-84
2023/12/05 04:42:18;;;;;;;12.17;9.07;;;;;;;;;;4979309;28;20188;-84
2023/12/05 04:44:44;;;;;;;14.60;9.00;;;;;;;;;;4979827;28;20408;-84
2023/12/05 04:47:10;;;;;;;10.07;7.70;;;;;;;;;;4979980;28;20415;-83
2023/12/05 04:49:36;;;;;;;13.90;8.45;;;;;;;;;;4979436;28;20200;-84
2023/12/05 04:52:02;;;;;;;11.98;8.13;;;;;;;;;;4979510;28;20176;-83
2023/12/05 04:54:28;;;;;;;9.87;6.87;;;;;;;;;;4980004;28;20633;-83
2023/12/05 04:56:53;;;;;;;9.07;7.45;;;;;;;;;;4979820;28;20400;-83
2023/12/05 04:59:19;;;;;;;9.60;7.43;;;;;;;;;;4979903;28;20184;-83
2023/12/05 05:01:47;;;;;;;8.30;6.67;;;;;;;;;;4979269;28;20407;-83
2023/12/05 05:04:13;;;;;;;10.00;7.00;;;;;;;;;;4979226;28;20500;-83
2023/12/05 05:06:39;;;;;;;12.10;7.77;;;;;;;;;;4979169;28;20207;-83
2023/12/05 05:09:05;;;;;;;9.30;7.25;;;;;;;;;;4979281;28;20459;-83
2023/12/05 05:11:31;;;;;;;9.60;7.07;;;;;;;;;;4979803;28;20191;-83
2023/12/05 05:13:57;;;;;;;10.60;8.00;;;;;;;;;;4979086;28;20176;-83
2023/12/05 05:16:23;;;;;;;10.35;7.60;;;;;;;;;;4979189;28;20175;-83
2023/12/05 05:18:50;;;;;;;10.90;7.53;;;;;;;;;;4979014;28;20182;-82
2023/12/05 05:21:16;;;;;;;9.68;7.25;;;;;;;;;;4979211;28;20463;-82
2023/12/05 05:23:42;;;;;;;11.40;7.43;;;;;;;;;;4977890;28;20180;-83
2023/12/05 05:26:08;;;;;;;9.93;7.13;;;;;;;;;;4979262;28;20922;-83
2023/12/05 05:28:34;;;;;;;9.13;7.30;;;;;;;;;;4978546;28;20855;-83
2023/12/05 05:31:01;;;;;;;14.70;8.50;;;;;;;;;;4979065;28;20443;-82
2023/12/05 05:33:27;;;;;;;9.82;6.32;;;;;;;;;;4978386;28;20412;-83
2023/12/05 05:35:53;;;;;;;9.95;6.70;;;;;;;;;;4977445;28;20180;-82
2023/12/05 05:38:19;;;;;;;10.67;7.13;;;;;;;;;;4978434;28;20536;-82
2023/12/05 05:40:47;;;;;;;9.50;7.53;;;;;;;;;;4978690;28;20492;-82
2023/12/05 05:43:13;;;;;;;8.50;6.30;;;;;;;;;;4977266;28;20403;-82
2023/12/05 05:45:39;;;;;;;9.63;6.78;;;;;;;;;;4978833;28;20506;-82
2023/12/05 05:48:05;;;;;;;9.30;7.00;;;;;;;;;;4978031;28;20203;-82
2023/12/05 05:50:31;;;;;;;13.48;7.95;;;;;;;;;;4976996;28;20276;-82
2023/12/05 05:52:57;;;;;;;10.40;6.30;;;;;;;;;;4978395;28;20589;-82
2023/12/05 05:55:24;;;;;;;10.20;6.80;;;;;;;;;;4976677;28;20432;-82
2023/12/05 05:57:51;;;;;;;11.30;7.18;;;;;;;;;;4977524;28;20413;-82
2023/12/05 06:00:17;;;;;;;9.18;6.78;;;;;;;;;;4977547;28;20172;-82
2023/12/05 06:02:43;;;;;;;15.45;7.75;;;;;;;;;;4977290;28;20176;-82
2023/12/05 06:05:09;;;;;;;10.77;6.70;;;;;;;;;;4977702;28;20252;-82
2023/12/05 06:07:35;;;;;;;7.90;5.93;;;;;;;;;;4977447;28;20214;-84
2023/12/05 06:10:01;;;;;;;11.80;6.75;;;;;;;;;;4976469;28;20287;-82
2023/12/05 06:12:27;;;;;;;10.70;6.20;;;;;;;;;;4977270;28;20263;-82
2023/12/05 06:14:53;;;;;;;6.80;5.87;;;;;;;;;;4977587;28;20395;-82
2023/12/05 06:17:19;;;;;;;7.73;5.87;;;;;;;;;;4977622;28;20411;-81
2023/12/05 06:19:45;;;;;;;8.33;5.90;;;;;;;;;;4977321;28;20886;-82
2023/12/05 06:22:12;;;;;;;6.05;5.25;;;;;;;;;;4976899;28;20420;-82
2023/12/05 06:24:38;;;;;;;9.07;6.45;;;;;;;;;;4977141;28;20595;-82
2023/12/05 06:27:04;;;;;;;6.73;5.83;;;;;;;;;;4977395;28;20271;-82
2023/12/05 06:29:30;;;;;;;10.30;5.97;;;;;;;;;;4977253;28;20487;-82
2023/12/05 06:31:56;;;;;;;5.30;4.70;;;;;;;;;;4977201;28;20246;-82
2023/12/05 06:34:23;;;;;;;10.33;5.47;;;;;;;;;;4977546;28;20403;-81
2023/12/05 06:36:49;;;;;;;8.30;6.40;;;;;;;;;;4977412;28;20410;-82
2023/12/05 06:39:15;;;;;;;6.97;4.90;;;;;;;;;;4977729;28;20640;-82
2023/12/05 06:41:41;;;;;;;8.20;5.80;;;;;;;;;;4977700;28;20454;-82
2023/12/05 06:44:07;;;;;;;7.57;4.80;;;;;;;;;;4977101;28;20629;-84
2023/12/05 06:46:33;;;;;;;8.83;6.20;;;;;;;;;;4977100;28;20168;-84
2023/12/05 06:49:00;;;;;;;7.30;4.43;;;;;;;;;;4976973;28;20544;-84
2023/12/05 06:51:26;;;;;;;7.00;4.85;;;;;;;;;;4977357;28;20506;-84
2023/12/05 06:53:52;;;;;;;9.13;5.83;;;;;;;;;;4975862;28;20212;-85
2023/12/05 06:56:20;;;;;;;7.70;5.07;;;;;;;;;;4976920;28;20470;-85
2023/12/05 06:58:46;;;;;;;7.50;5.28;;;;;;;;;;4976815;28;20896;-85
2023/12/05 07:01:12;;;;;;;6.50;5.30;;;;;;;;;;4977310;28;20194;-85
2023/12/05 07:03:37;;;;;;;6.50;4.97;;;;;;;;;;4977813;28;20204;-86
2023/12/05 07:06:05;;;;;;;8.30;5.10;;;;;;;;;;4977393;28;20440;-87
2023/12/05 07:08:31;;;;;;;6.05;5.18;;;;;;;;;;4976869;28;20500;-87
2023/12/05 07:10:57;;;;;;;6.15;4.38;;;;;;;;;;4976267;28;20180;-87
2023/12/05 07:13:23;;;;;;;7.55;5.05;;;;;;;;;;4977672;28;20187;-87
2023/12/05 07:15:49;;;;;;;10.00;5.40;;;;;;;;;;4978035;28;20196;-86
2023/12/05 07:18:15;;;;;;;7.78;4.82;;;;;;;;;;4977995;28;20465;-86
2023/12/05 07:20:41;;;;;;;8.10;4.93;;;;;;;;;;4977628;28;20204;-87
2023/12/05 07:23:07;;;;;;;6.55;5.00;;;;;;;;;;4978064;28;20176;-86
2023/12/05 07:25:33;;;;;;;7.10;4.93;;;;;;;;;;4977876;28;20176;-86
2023/12/05 07:27:59;;;;;;;6.63;4.10;;;;;;;;;;4978346;28;20465;-87
2023/12/05 07:30:25;;;;;;;7.70;4.30;;;;;;;;;;4978186;28;20894;-87
2023/12/05 07:32:51;;;;;;;7.00;4.32;;;;;;;;;;4978344;28;20757;-88
2023/12/05 07:35:17;;;;;;;6.00;4.67;;;;;;;;;;4978951;28;20168;-86
2023/12/05 07:37:43;;;;;;;6.53;4.70;;;;;;;;;;4978136;28;20880;-87
2023/12/05 07:40:09;;;;;;;4.87;4.13;;;;;;;;;;4980917;28;20503;-87
2023/12/05 07:42:35;;;;;;;6.53;4.65;;;;;;;;;;4980862;28;20403;-87
2023/12/05 07:45:02;;;;;;;8.93;4.80;;;;;;;;;;4980957;28;20192;-86
2023/12/05 07:47:28;;;;;;;9.05;4.28;;;;;;;;;;4978921;28;20420;-86
2023/12/05 07:49:54;;;;;;;6.60;4.65;;;;;;;;;;4978476;28;20209;-86
2023/12/05 07:52:20;;;;;;;10.23;4.82;;;;;;;;;;4980250;28;20176;-86
2023/12/05 07:54:46;;;;;;;6.82;4.20;;;;;;;;;;4980015;28;20172;-86
2023/12/05 07:57:12;;;;;;;5.83;3.77;;;;;;;;;;4978839;28;20496;-85
2023/12/05 07:59:38;;;;;;;6.22;5.18;;;;;;;;;;4978364;28;20431;-86
2023/12/05 08:02:04;;;;;;;6.70;3.97;;;;;;;;;;4979241;28;20230;-86
2023/12/05 08:07:05;;;;;;;4.82;3.63;;;;;;;;;;3453573;23;20487;-84
2023/12/05 08:15:39;;;;;;;6.13;3.50;;;;;;;;;;4978487;28;20280;-86
2023/12/05 08:18:05;;;;;;;2.60;2.33;;;;;;;;;;4978819;28;20192;-86
2023/12/05 08:20:31;;;;;;;10.67;3.67;;;;;;;;;;4977174;28;20422;-88
2023/12/05 08:22:57;;;;;;;3.03;2.77;;;;;;;;;;4978493;28;20444;-86
2023/12/05 08:25:23;;;;;;;5.30;2.80;;;;;;;;;;4978824;28;20421;-87
2023/12/05 08:27:49;;;;;;;3.33;2.90;;;;;;;;;;4977253;28;20424;-86
2023/12/05 08:30:15;;;;;;;4.45;3.30;;;;;;;;;;4978993;28;20558;-86
2023/12/05 08:32:41;;;;;;;3.67;2.63;;;;;;;;;;4978606;28;20694;-86
2023/12/05 08:35:07;;;;;;;4.05;2.83;;;;;;;;;;4976619;28;20962;-87
2023/12/05 08:37:34;;;;;;;5.22;2.83;;;;;;;;;;4976650;28;20184;-87
2023/12/05 08:39:59;;;;;;;4.53;3.05;;;;;;;;;;4978233;28;20549;-86
2023/12/05 08:42:28;;;;;;;3.90;2.50;;;;;;;;;;4978795;28;20191;-86
2023/12/05 08:44:54;;;;;;;3.80;2.65;;;;;;;;;;4978360;28;20444;-86
2023/12/05 08:47:20;;;;;;;3.65;2.47;;;;;;;;;;4978375;28;20191;-86
2023/12/05 08:49:46;;;;;;;3.73;2.10;;;;;;;;;;4978031;28;20215;-86
2023/12/05 08:52:12;;;;;;;2.63;1.77;;;;;;;;;;4978275;28;20411;-87
2023/12/05 08:54:38;;;;;;;3.43;2.20;;;;;;;;;;4977509;28;20420;-87
2023/12/05 08:57:04;;;;;;;2.90;1.60;;;;;;;;;;4978637;28;20768;-86
2023/12/05 08:59:30;;;;;;;2.75;1.77;;;;;;;;;;4977286;28;20547;-87
2023/12/05 09:01:56;;;;;;;4.23;1.93;;;;;;;;;;4978975;28;20210;-86
2023/12/05 09:04:22;;;;;;;3.33;2.00;;;;;;;;;;4978587;28;20908;-84
2023/12/05 09:06:48;;;;;;;5.47;2.00;;;;;;;;;;4977924;28;20426;-85
2023/12/05 09:09:14;;;;;;;2.80;2.10;;;;;;;;;;4978473;28;20462;-84
2023/12/05 09:11:40;;;;;;;4.10;2.35;;;;;;;;;;4977811;28;20406;-85
2023/12/05 09:14:06;;;;;;;6.07;2.72;;;;;;;;;;4978348;28;20176;-84
2023/12/05 09:16:32;;;;;;;5.30;3.28;;;;;;;;;;4977835;28;20262;-85
2023/12/05 09:18:58;;;;;;;3.55;2.15;;;;;;;;;;4977765;28;20192;-85
2023/12/05 09:21:24;;;;;;;5.18;1.80;;;;;;;;;;4976423;28;20625;-86
2023/12/05 09:23:50;;;;;;;6.40;2.70;;;;;;;;;;4977843;28;20833;-86
2023/12/05 09:26:16;;;;;;;4.40;2.07;;;;;;;;;;4985299;28;20810;-84
2023/12/05 09:28:42;;;;;;;3.92;2.42;;;;;;;;;;4975987;28;20467;-84
2023/12/05 09:31:08;;;;;;;4.30;2.17;;;;;;;;;;4976703;28;20189;-84
2023/12/05 09:33:34;;;;;;;4.90;2.20;;;;;;;;;;4977471;28;20420;-86
2023/12/05 09:36:00;;;;;;;2.63;2.10;;;;;;;;;;4976999;28;20450;-85
2023/12/05 09:38:26;;;;;;;3.80;2.00;;;;;;;;;;4976403;28;20912;-86
2023/12/05 09:40:52;;;;;;;4.43;2.10;;;;;;;;;;4977261;28;20425;-86
2023/12/05 09:43:22;;;;;;;8.48;3.20;;;;;;;;;;4977207;28;20498;-86
2023/12/05 09:45:50;;;;;;;12.07;2.20;;;;;;;;;;4975917;28;20180;-86
2023/12/05 09:48:17;;;;;;;2.22;2.00;;;;;;;;;;4977036;28;20262;-85
2023/12/05 09:50:43;;;;;;;5.07;2.40;;;;;;;;;;4976997;28;20210;-85
2023/12/05 09:53:10;;;;;;;4.22;2.67;;;;;;;;;;4977593;28;20185;-86
2023/12/05 09:55:37;;;;;;;2.25;1.55;;;;;;;;;;4976806;28;20181;-86
2023/12/05 09:58:03;;;;;;;2.90;1.60;;;;;;;;;;4976852;28;20208;-86
2023/12/05 10:00:29;;;;;;;1.63;1.52;;;;;;;;;;4977716;28;20215;-85
2023/12/05 10:02:56;;;;;;;3.00;1.80;;;;;;;;;;4976410;28;20175;-86
2023/12/05 10:05:24;;;;;;;2.55;1.50;;;;;;;;;;4978005;28;20402;-86
2023/12/05 10:07:50;;;;;;;2.30;1.88;;;;;;;;;;4977440;28;20228;-85
2023/12/05 10:10:19;;;;;;;3.28;2.08;;;;;;;;;;4977500;28;20221;-85
2023/12/05 10:12:46;;;;;;;3.55;2.20;;;;;;;;;;4980478;28;20632;-86
2023/12/05 10:15:12;;;;;;;5.65;2.42;;;;;;;;;;4978633;28;20204;-86
2023/12/05 10:17:38;;;;;;;5.70;2.00;;;;;;;;;;4976492;28;20181;-87
2023/12/05 10:20:04;;;;;;;4.67;1.93;;;;;;;;;;4977555;28;20439;-86
2023/12/05 10:22:31;;;;;;;2.25;1.55;;;;;;;;;;4977609;28;20392;-86
2023/12/05 10:24:57;;;;;;;2.80;1.95;;;;;;;;;;4977311;28;20176;-86
2023/12/05 10:27:23;;;;;;;1.27;1.10;;;;;;;;;;4976907;28;20720;-85
2023/12/05 10:29:49;;;;;;;1.10;0.98;;;;;;;;;;4976054;28;20210;-84
2023/12/05 10:32:15;;;;;;;1.60;1.20;;;;;;;;;;4976558;28;20208;-84
2023/12/05 10:34:49;;;;;;;1.97;1.03;;;;;;;;;;4977775;28;20415;-83
2023/12/05 10:37:15;;;;;;;4.57;1.10;;;;;;;;;;4980155;28;20431;-83
2023/12/05 10:39:41;;;;;;;4.40;1.63;;;;;;;;;;4976716;28;20211;-86
2023/12/05 10:42:08;;;;;;;1.70;1.10;;;;;;;;;;4976879;28;20200;-85
2023/12/05 10:44:40;;;;;;;2.00;1.50;;;;;;;;;;4974956;28;20419;-86
2023/12/05 10:47:07;;;;;;;2.75;1.50;;;;;;;;;;4975897;28;20626;-85
2023/12/05 10:49:34;;;;;;;2.67;1.38;;;;;;;;;;4975258;28;20224;-85
2023/12/05 10:52:02;;;;;;;2.08;1.48;;;;;;;;;;4976902;28;20543;-85
2023/12/05 10:54:27;;;;;;;1.60;1.17;;;;;;;;;;4976937;28;20175;-85
2023/12/05 10:56:59;;;;;;;1.60;1.50;;;;;;;;;;4976085;28;20193;-86
2023/12/05 10:59:27;;;;;;;3.03;1.25;;;;;;;;;;4976544;28;20481;-84
2023/12/05 11:01:55;;;;;;;1.50;1.13;;;;;;;;;;4976311;28;20188;-85
2023/12/05 11:04:22;;;;;;;1.90;1.40;;;;;;;;;;4974994;28;20173;-85
2023/12/05 11:06:48;;;;;;;2.25;1.70;;;;;;;;;;4976359;28;20186;-86
2023/12/05 11:09:14;;;;;;;2.83;1.83;;;;;;;;;;4976582;28;20568;-85
2023/12/05 11:11:40;;;;;;;2.70;1.23;;;;;;;;;;4976178;28;20415;-86
2023/12/05 11:14:09;;;;;;;2.75;1.83;;;;;;;;;;4977858;28;20414;-86
2023/12/05 11:16:37;;;;;;;1.40;1.25;;;;;;;;;;4978630;28;20191;-83
2023/12/05 11:19:17;;;;;;;2.28;1.60;;;;;;;;;;4980235;28;20176;-85
2023/12/05 11:22:01;;;;;;;2.15;1.30;;;;;;;;;;4979825;28;20179;-86
2023/12/05 11:24:46;;;;;;;1.30;1.17;;;;;;;;;;4982160;28;20540;-86
2023/12/05 11:27:35;;;;;;;1.55;1.40;;;;;;;;;;4980362;28;20176;-85
2023/12/05 11:30:28;;;;;;;1.95;1.42;;;;;;;;;;4976147;28;20613;-85
2023/12/05 11:33:12;;;;;;;2.50;1.10;;;;;;;;;;4979733;28;20198;-85
2023/12/05 11:35:41;;;;;;;7.32;1.25;;;;;;;;;;4979761;28;20573;-89
2023/12/05 11:38:09;;;;;;;1.35;1.05;;;;;;;;;;4979885;28;20635;-85
2023/12/05 11:40:35;;;;;;;5.95;1.50;;;;;;;;;;4978842;28;20181;-86
2023/12/05 11:43:08;;;;;;;1.43;1.30;;;;;;;;;;4979053;28;20190;-83
2023/12/05 11:45:37;;;;;;;2.20;1.15;;;;;;;;;;4979270;28;20415;-85
2023/12/05 11:48:04;;;;;;;1.85;1.00;;;;;;;;;;4979143;28;20171;-85
2023/12/05 11:50:40;;;;;;;6.07;1.45;;;;;;;;;;4979340;28;20211;-85
2023/12/05 11:53:08;;;;;;;4.35;1.85;;;;;;;;;;4979083;28;20175;-85
2023/12/05 11:55:34;;;;;;;3.05;1.90;;;;;;;;;;4979048;28;20262;-85
2023/12/05 11:58:00;;;;;;;1.75;1.48;;;;;;;;;;4978670;28;20207;-85
2023/12/05 12:00:26;;;;;;;2.80;1.53;;;;;;;;;;4979132;28;20198;-83
2023/12/05 12:02:59;;;;;;;3.33;1.55;;;;;;;;;;4978888;28;20404;-85
2023/12/05 12:05:25;;;;;;;2.45;1.88;;;;;;;;;;4979203;28;20179;-84
2023/12/05 12:07:58;;;;;;;2.38;1.83;;;;;;;;;;4978818;28;20295;-85
2023/12/05 12:10:26;;;;;;;2.80;1.50;;;;;;;;;;4978687;28;20705;-84
2023/12/05 12:12:52;;;;;;;4.15;1.95;;;;;;;;;;4978595;28;20573;-85
2023/12/05 12:15:21;;;;;;;3.10;1.48;;;;;;;;;;4978973;28;20180;-85
2023/12/05 12:17:48;;;;;;;1.77;1.38;;;;;;;;;;4978448;28;20186;-85
2023/12/05 12:20:14;;;;;;;2.60;1.30;;;;;;;;;;4977303;28;20184;-83
2023/12/05 12:22:41;;;;;;;1.95;1.50;;;;;;;;;;4978833;28;20187;-83
2023/12/05 12:25:13;;;;;;;4.82;3.55;;;;;;;;;;4977619;28;20231;-83
2023/12/05 12:27:42;;;;;;;4.60;3.30;;;;;;;;;;4979910;28;20160;-82
2023/12/05 12:30:10;;;;;;;6.05;4.70;;;;;;;;;;4980365;28;20262;-86
2023/12/05 12:32:38;;;;;;;4.20;3.53;;;;;;;;;;4978465;28;20184;-82
2023/12/05 12:35:05;;;;;;;1.52;1.42;;;;;;;;;;4978176;28;20270;-83
2023/12/05 12:37:31;;;;;;;4.68;1.35;;;;;;;;;;4977189;28;20250;-85
2023/12/05 12:39:57;;;;;;;1.42;1.30;;;;;;;;;;4976779;28;20184;-82
2023/12/05 12:42:25;;;;;;;2.15;1.52;;;;;;;;;;4978266;28;20179;-83
2023/12/05 12:44:52;;;;;;;1.52;1.40;;;;;;;;;;4978555;28;20172;-84
2023/12/05 12:47:18;;;;;;;1.65;1.45;;;;;;;;;;4978057;28;20218;-83
2023/12/05 12:49:44;;;;;;;4.60;1.70;;;;;;;;;;4978290;28;20341;-84
2023/12/05 12:52:10;;;;;;;1.67;1.23;;;;;;;;;;4978461;28;20896;-83
2023/12/05 12:54:38;;;;;;;2.83;1.13;;;;;;;;;;4977772;28;20183;-82
2023/12/05 12:57:05;;;;;;;3.05;1.20;;;;;;;;;;4977541;28;20275;-83
2023/12/05 12:59:31;;;;;;;4.75;1.45;;;;;;;;;;4977529;28;20584;-84
2023/12/05 13:01:57;;;;;;;1.83;0.90;;;;;;;;;;4977369;28;20180;-85
2023/12/05 13:04:28;;;;;;;1.95;1.20;;;;;;;;;;4977640;28;20469;-85
2023/12/05 13:06:54;;;;;;;2.85;1.08;;;;;;;;;;4977802;28;20183;-85
2023/12/05 13:09:20;;;;;;;1.17;0.97;;;;;;;;;;4976848;28;20220;-84
2023/12/05 13:11:47;;;;;;;2.03;1.40;;;;;;;;;;4977470;28;20444;-84
2023/12/05 13:14:15;;;;;;;2.40;1.35;;;;;;;;;;4977473;28;20569;-84
2023/12/05 13:16:41;;;;;;;2.70;1.38;;;;;;;;;;4977962;28;20706;-84
2023/12/05 13:19:27;;;;;;;2.90;1.45;;;;;;;;;;4977225;28;20191;-85
2023/12/05 13:21:53;;;;;;;2.42;1.80;;;;;;;;;;4976196;28;20647;-86
2023/12/05 13:24:21;;;;;;;3.28;1.50;;;;;;;;;;4960281;28;20550;-84
2023/12/05 13:26:47;;;;;;;2.42;1.90;;;;;;;;;;4977415;28;20165;-83
2023/12/05 13:29:13;;;;;;;2.25;1.60;;;;;;;;;;4976787;28;20212;-85
2023/12/05 13:31:39;;;;;;;1.40;1.30;;;;;;;;;;4976335;28;20224;-83
2023/12/05 13:34:05;;;;;;;1.95;1.15;;;;;;;;;;4976095;28;20858;-83
2023/12/05 13:36:32;;;;;;;1.35;1.02;;;;;;;;;;4976576;28;20187;-85
2023/12/05 13:38:58;;;;;;;2.25;1.20;;;;;;;;;;4976382;28;20271;-86
2023/12/05 13:41:24;;;;;;;3.05;1.27;;;;;;;;;;4976561;28;20171;-86
2023/12/05 13:43:51;;;;;;;1.53;1.10;;;;;;;;;;4976260;28;20188;-86
2023/12/05 13:46:17;;;;;;;1.98;1.50;;;;;;;;;;4977039;28;20442;-86
2023/12/05 13:48:44;;;;;;;2.85;1.73;;;;;;;;;;4976494;28;20211;-86
2023/12/05 13:51:10;;;;;;;2.13;1.40;;;;;;;;;;4975102;28;20192;-87
2023/12/05 13:53:36;;;;;;;1.83;1.65;;;;;;;;;;4976460;28;20218;-85
2023/12/05 13:56:02;;;;;;;3.05;1.10;;;;;;;;;;4976639;28;20202;-86
2023/12/05 13:58:28;;;;;;;4.07;1.38;;;;;;;;;;4976981;28;20173;-86
2023/12/05 14:00:54;;;;;;;2.35;1.55;;;;;;;;;;4975603;28;20534;-86
2023/12/05 14:03:20;;;;;;;1.23;1.10;;;;;;;;;;4975387;28;20176;-86
2023/12/05 14:05:46;;;;;;;1.97;1.40;;;;;;;;;;4977378;28;20213;-85
2023/12/05 14:08:12;;;;;;;2.30;1.73;;;;;;;;;;4975447;28;20467;-86
2023/12/05 14:10:39;;;;;;;2.65;1.02;;;;;;;;;;4977404;28;20605;-86
2023/12/05 14:13:05;;;;;;;4.60;1.40;;;;;;;;;;4975347;28;20537;-86
2023/12/05 14:15:31;;;;;;;3.50;2.53;;;;;;;;;;4977151;28;20275;-85
2023/12/05 14:17:57;;;;;;;4.53;3.00;;;;;;;;;;4977202;28;20407;-85
2023/12/05 14:20:23;;;;;;;4.37;3.50;;;;;;;;;;4977397;28;20191;-85
2023/12/05 14:22:49;;;;;;;4.88;3.95;;;;;;;;;;4976967;28;20436;-86
2023/12/05 14:25:16;;;;;;;5.35;4.05;;;;;;;;;;4977348;28;20181;-85
2023/12/05 14:27:42;;;;;;;9.73;4.95;;;;;;;;;;4976464;28;20176;-85
2023/12/05 14:30:09;;;;;;;7.60;6.03;;;;;;;;;;4976801;28;20208;-84
2023/12/05 14:32:35;;;;;;;8.77;6.20;;;;;;;;;;4976596;28;20413;-84
2023/12/05 14:35:04;;;;;;;13.45;8.20;;;;;;;;;;4976471;28;20180;-84
2023/12/05 14:37:30;;;;;;;9.98;7.28;;;;;;;;;;4977081;28;20176;-83
2023/12/05 14:39:56;;;;;;;11.63;7.93;;;;;;;;;;4977116;28;20192;-84